Anzali, Iran

9:35 AM IRDT on August 30, 2014 (GMT +0430)
Rasht | Change Station
CLOSE
Current Station
Airport
Location: Rasht,
Elevation: -30 ft
Nearby Weather Stations

Elev -30 ft 37.33 °N, 49.61 °E | Updated 35 minutes ago

Scattered Clouds
Scattered Clouds
82 °F
Feels Like 86 °F
N
7
Wind Variable Wind from West

Today
High -- | Low -- °F
--% Chance of Precip.
Yesterday
High -- | Low -- °F
Precip. -- in
6:40 AM 7:44 PM
Waxing Crescent, 19% visible
Pressure 29.89 in
Visibility 3.7 miles
Clouds Few 1500 ft
Scattered Clouds 2000 ft
Heat Index 86 °F
Dew Point 70 °F
Humidity 66%
Rainfall 0.00 in
Snow Depth Not available.
UV 2 out of 12
Pollen Not available.
Air Quality Not available.
Flu Activity Not available.
METAR OIGG 300430Z 26006KT 6000 FEW015CB SCT020TCU 28/21 Q1012

More Conditions Fewer Conditions

Pressure 29.89 in
Visibility 3.7 miles
Clouds Few 1500 ft
Scattered Clouds 2000 ft
Heat Index 86 °F
Dew Point 70 °F
Humidity 66%
Rainfall 0.00 in
Snow Depth Not available.
UV 2 out of 12
Pollen Not available.
Air Quality Not available.
Flu Activity Not available.
METAR OIGG 300430Z 26006KT 6000 FEW015CB SCT020TCU 28/21 Q1012

More Conditions Fewer Conditions

10-Day Weather Forecast

Almanac

Astronomy

Aug. 30, 2014 Rise Set
Actual Time 6:40 AM IRDT 7:44 PM IRDT
Civil Twilight 6:13 AM IRDT 8:11 PM IRDT
Nautical Twilight 5:41 AM IRDT 8:43 PM IRDT
Astronomical Twilight 5:08 AM IRDT 9:16 PM IRDT
Moon 10:59 AM IRDT 10:10 PM IRDT
Length of Visible Light 13h 57m
Length of Day
13h 04m
Tomorrow will be 2m 18s shorter.
Waxing Crescent, 19% of the Moon is Illuminated
Today
Waxing Crescent
Sep 2
First Quarter
Sep 8
Full
Sep 15
Last Quarter
Sep 24
New

Yesterday's Extremes

Country Highs Country Lows

Community

WunderPhotos

Upload Photos

1,748,459 photos uploaded!

Nearby

Snow Depth

Not available.

Earthquake Activity

City Distance Mag. Time & Date
No recent earthquake activity has been reported nearby.
Minimum magnitude displayed is 2.5.

Coastal Water Temperatures

Place Temperature
No Stations Reporting

Nearby Weather Stations